Time;durP1;ratioP1;P1;durP2;ratioP2;P2;SDS_P1;SDS_P2;PMS_P1;PMS_P2;Temp;Humidity;BMP_temperature;BMP_pressure;BME280_temperature;BME280_humidity;BME280_pressure;Samples;Min_cycle;Max_cycle;Signal;HPM_P1;HPM_P2
2023/04/11 00:05:38;;;;;;;33.10;19.10;;;;;;;2.28;100.00;99213.21;271601;1270;22549;-87
2023/04/11 00:12:04;;;;;;;28.60;17.10;;;;;;;2.25;100.00;99200.79;271316;1266;25372;-88
2023/04/11 00:18:07;;;;;;;26.10;14.40;;;;;;;2.24;100.00;99188.93;270531;1262;22585;-87
2023/04/11 00:24:11;;;;;;;25.70;15.50;;;;;;;2.14;100.00;99184.98;270237;1266;23408;-87
2023/04/11 00:30:13;;;;;;;33.20;17.60;;;;;;;2.10;100.00;99173.57;270610;1270;22516;-88
2023/04/11 00:36:16;;;;;;;37.90;20.40;;;;;;;1.99;100.00;99170.08;270561;1267;23312;-89
2023/04/11 00:42:57;;;;;;;42.90;21.90;;;;;;;1.87;100.00;99171.54;272846;1266;22309;-86
2023/04/11 00:49:00;;;;;;;35.60;21.70;;;;;;;1.82;100.00;99162.32;274212;1267;22336;-87
2023/04/11 00:55:06;;;;;;;53.00;32.00;;;;;;;1.74;100.00;99162.36;274090;1266;23066;-87
2023/04/11 01:01:34;;;;;;;43.00;25.00;;;;;;;1.63;100.00;99155.24;271451;1267;22474;-87
2023/04/11 01:07:36;;;;;;;37.10;21.40;;;;;;;1.52;100.00;99146.19;272327;1257;22211;-87
2023/04/11 01:13:40;;;;;;;32.90;19.10;;;;;;;1.47;100.00;99136.77;273699;1259;22468;-87
2023/04/11 01:20:01;;;;;;;33.30;20.30;;;;;;;1.51;100.00;99133.55;272388;1270;22634;-87
2023/04/11 01:26:30;;;;;;;38.00;23.50;;;;;;;1.44;100.00;99124.14;271416;1267;22497;-88
2023/04/11 01:33:14;;;;;;;36.40;20.50;;;;;;;1.45;100.00;99118.02;272278;1267;22570;-88
2023/04/11 01:39:18;;;;;;;40.20;24.60;;;;;;;1.49;100.00;99117.67;271341;1266;22587;-87
2023/04/11 01:53:06;;;;;;;25.40;15.20;;;;;;;1.42;100.00;99110.77;270162;1266;22569;-87
2023/04/11 01:59:08;;;;;;;47.70;16.60;;;;;;;1.43;100.00;99102.80;270752;1266;23717;-86
2023/04/11 02:05:17;;;;;;;37.10;13.90;;;;;;;1.34;100.00;99088.23;270602;1262;22644;-87
2023/04/11 02:11:21;;;;;;;29.10;15.00;;;;;;;1.26;100.00;99083.70;273725;1267;22579;-87
2023/04/11 02:17:29;;;;;;;33.10;14.70;;;;;;;1.27;100.00;99080.69;270559;1272;22535;-89
2023/04/11 02:23:48;;;;;;;49.30;17.40;;;;;;;1.33;100.00;99086.36;271899;1267;22529;-88
2023/04/11 02:30:25;;;;;;;40.00;15.70;;;;;;;1.28;100.00;99075.02;272844;1266;22534;-88
2023/04/11 02:36:49;;;;;;;45.60;16.20;;;;;;;1.14;100.00;99058.52;270784;1266;22546;-87
2023/04/11 02:43:00;;;;;;;50.70;19.60;;;;;;;1.08;100.00;99054.92;271004;1267;23025;-87
2023/04/11 02:49:44;;;;;;;54.20;16.30;;;;;;;0.98;100.00;99050.72;270400;1266;22543;-86
2023/04/11 02:56:21;;;;;;;52.60;17.30;;;;;;;0.86;100.00;99046.84;270271;1267;22543;-87
2023/04/11 03:02:28;;;;;;;59.90;20.40;;;;;;;0.78;100.00;99043.73;271772;1267;22901;-87
2023/04/11 05:26:40;;;;;;;84.00;43.00;;;;;;;1.50;100.00;98931.46;262211;1308;545703;-88
2023/04/11 05:32:45;;;;;;;80.10;41.50;;;;;;;1.93;100.00;98921.44;267858;1282;22591;-87
2023/04/11 05:38:51;;;;;;;48.80;27.90;;;;;;;2.41;100.00;98905.81;264897;1274;5114015;-87
2023/04/11 05:45:06;;;;;;;61.10;34.20;;;;;;;2.90;100.00;98895.64;270632;1273;22226;-87
2023/04/11 05:51:08;;;;;;;56.10;32.60;;;;;;;3.56;100.00;98893.64;271501;1279;23266;-87
2023/04/11 05:57:14;;;;;;;42.40;27.70;;;;;;;4.21;100.00;98886.45;269414;1276;22342;-87
2023/04/11 06:03:16;;;;;;;32.60;20.20;;;;;;;4.80;100.00;98878.82;269822;1278;22535;-89
2023/04/11 06:09:19;;;;;;;25.90;18.70;;;;;;;5.37;100.00;98866.38;271643;1276;24219;-87
2023/04/11 06:15:28;;;;;;;23.90;16.90;;;;;;;5.94;100.00;98861.17;269373;1273;22642;-88
2023/04/11 06:21:33;;;;;;;19.00;14.10;;;;;;;6.49;100.00;98850.34;271071;1272;22191;-88
2023/04/11 06:27:40;;;;;;;15.10;10.40;;;;;;;7.02;100.00;98836.06;272417;1273;22415;-87
2023/04/11 06:33:44;;;;;;;16.70;12.80;;;;;;;7.46;100.00;98831.03;270202;1274;22691;-90
2023/04/11 06:39:46;;;;;;;13.90;11.10;;;;;;;7.86;100.00;98823.05;269604;1274;23550;-87
2023/04/11 06:46:21;;;;;;;15.30;11.30;;;;;;;8.17;100.00;98813.17;269799;1273;22493;-88
2023/04/11 06:52:25;;;;;;;10.30;8.40;;;;;;;8.46;100.00;98816.95;271694;1258;22929;-89
2023/04/11 06:58:27;;;;;;;10.50;7.90;;;;;;;8.88;100.00;98810.99;268955;1272;25234;-87
2023/04/11 07:04:29;;;;;;;8.60;6.40;;;;;;;9.27;100.00;98804.52;268884;1272;22598;-88
2023/04/11 07:10:31;;;;;;;7.30;6.00;;;;;;;9.63;100.00;98799.59;269113;1273;25335;-88
2023/04/11 07:16:51;;;;;;;13.90;6.30;;;;;;;9.92;100.00;98793.81;269035;1271;22515;-87
2023/04/11 07:23:08;;;;;;;9.60;6.10;;;;;;;10.18;100.00;98794.80;269416;1273;22586;-87
2023/04/11 07:29:32;;;;;;;9.80;6.70;;;;;;;10.52;100.00;98789.31;271691;1273;22523;-88
2023/04/11 07:35:53;;;;;;;9.00;6.70;;;;;;;10.90;100.00;98783.66;272802;1273;22364;-87
2023/04/11 07:42:20;;;;;;;7.40;5.00;;;;;;;11.10;100.00;98775.71;272858;1273;22439;-90
2023/04/11 07:49:03;;;;;;;7.80;5.00;;;;;;;11.18;100.00;98762.13;270886;1273;22562;-88
2023/04/11 07:56:08;;;;;;;8.20;5.10;;;;;;;11.42;100.00;98753.15;269425;1273;25464;-89
2023/04/11 08:02:22;;;;;;;10.60;7.90;;;;;;;11.71;100.00;98747.86;270367;1272;22271;-88
2023/04/11 08:08:25;;;;;;;14.20;9.50;;;;;;;12.01;100.00;98737.42;272654;1273;22404;-89
2023/04/11 08:14:31;;;;;;;12.90;9.40;;;;;;;12.30;100.00;98732.73;272831;1273;22203;-88
2023/04/11 08:20:33;;;;;;;13.10;9.40;;;;;;;12.61;100.00;98736.56;272902;1273;22321;-88
2023/04/11 08:27:08;;;;;;;13.40;10.20;;;;;;;13.12;100.00;98725.80;272671;1274;22407;-88
2023/04/11 08:34:45;;;;;;;12.30;7.60;;;;;;;13.61;100.00;98714.13;272539;1273;22323;-87
2023/04/11 08:40:53;;;;;;;9.20;5.20;;;;;;;13.65;96.94;98688.41;272674;1273;23620;-91
2023/04/11 08:46:59;;;;;;;7.30;4.90;;;;;;;13.36;95.48;98671.13;272360;1273;22239;-87
2023/04/11 08:53:11;;;;;;;7.50;4.70;;;;;;;13.41;94.49;98656.88;271932;1273;22554;-90
2023/04/11 08:59:47;;;;;;;7.30;4.60;;;;;;;13.57;90.93;98651.36;270777;1273;22436;-88
2023/04/11 09:06:18;;;;;;;5.30;4.50;;;;;;;13.91;90.09;98643.96;271713;1273;22246;-91
2023/04/11 09:12:28;;;;;;;5.90;4.00;;;;;;;14.06;85.34;98636.06;272034;1273;22397;-91
2023/04/11 09:18:47;;;;;;;5.60;4.10;;;;;;;13.95;85.53;98616.81;271801;1273;22459;-91
2023/04/11 09:25:03;;;;;;;6.00;4.20;;;;;;;13.92;83.75;98607.95;272739;1273;22513;-93
2023/04/11 09:31:12;;;;;;;6.50;3.70;;;;;;;13.84;82.37;98598.50;272930;1272;22344;-89
2023/04/11 09:37:54;;;;;;;5.20;3.80;;;;;;;14.01;82.03;98589.32;272426;1272;23216;-89
2023/04/11 09:44:05;;;;;;;5.50;3.90;;;;;;;14.41;81.29;98580.77;273083;1273;22269;-91
2023/04/11 09:50:10;;;;;;;5.30;3.90;;;;;;;14.77;77.65;98567.30;273077;1272;22213;-91
2023/04/11 09:56:16;;;;;;;6.00;4.10;;;;;;;15.36;76.93;98552.54;272831;1264;22194;-90
2023/04/11 10:02:30;;;;;;;4.50;3.40;;;;;;;15.89;74.50;98537.52;271583;1272;23260;-91
2023/04/11 10:08:41;;;;;;;9.80;3.70;;;;;;;16.43;74.17;98519.91;270122;1272;22570;-88
2023/04/11 10:14:46;;;;;;;7.50;3.50;;;;;;;17.10;70.72;98508.34;272893;1272;22437;-92
2023/04/11 10:20:51;;;;;;;5.30;3.40;;;;;;;17.72;70.38;98497.23;272274;1272;22434;-89
2023/04/11 10:27:02;;;;;;;5.20;2.90;;;;;;;18.11;70.46;98483.05;272825;1274;22181;-89
2023/04/11 10:33:17;;;;;;;4.90;3.30;;;;;;;17.99;69.87;98472.87;272641;1272;22317;-88
2023/04/11 10:39:56;;;;;;;6.10;3.50;;;;;;;17.76;68.37;98466.84;270384;1273;25386;-89
2023/04/11 10:46:23;;;;;;;4.30;3.00;;;;;;;17.72;68.14;98462.84;269897;1272;22340;-89
2023/04/11 10:52:26;;;;;;;5.00;3.00;;;;;;;17.70;67.49;98463.58;272274;1272;22540;-89
2023/04/11 10:58:57;;;;;;;4.20;3.00;;;;;;;17.55;65.27;98460.98;268846;1272;23260;-90
2023/04/11 11:12:31;;;;;;;5.60;3.60;;;;;;;18.01;63.93;98445.36;269678;1273;22563;-90
2023/04/11 11:18:34;;;;;;;5.40;3.20;;;;;;;18.71;62.75;98440.73;269479;1274;22583;-91
2023/04/11 11:24:39;;;;;;;4.70;3.10;;;;;;;18.83;61.08;98435.56;269437;1272;22681;-89
2023/04/11 11:31:00;;;;;;;3.80;2.80;;;;;;;18.14;60.50;98428.70;269485;1272;25360;-88
2023/04/11 11:37:05;;;;;;;4.10;3.20;;;;;;;17.71;60.26;98425.94;272333;1272;22531;-89
2023/04/11 11:43:26;;;;;;;4.00;2.90;;;;;;;17.63;60.31;98419.10;269953;1273;22552;-90
2023/04/11 11:50:25;;;;;;;3.50;3.00;;;;;;;18.24;60.70;98406.17;271686;1272;22411;-89
2023/04/11 11:56:27;;;;;;;3.80;3.10;;;;;;;18.47;59.28;98399.73;272562;1270;23538;-88
2023/04/11 12:02:48;;;;;;;5.60;3.10;;;;;;;18.09;57.84;98398.30;272756;1272;22230;-91
2023/04/11 12:09:07;;;;;;;3.90;3.20;;;;;;;17.75;57.39;98387.52;270645;1272;23904;-89
2023/04/11 12:15:19;;;;;;;7.90;3.60;;;;;;;17.83;57.71;98378.06;269623;1269;23076;-89
2023/04/11 12:21:24;;;;;;;5.30;3.40;;;;;;;17.89;57.36;98375.84;269332;1264;22562;-88
2023/04/11 12:27:26;;;;;;;5.20;2.90;;;;;;;17.65;56.89;98377.77;268954;1272;25320;-89
2023/04/11 12:33:28;;;;;;;5.20;3.30;;;;;;;17.59;56.99;98375.80;269007;1274;22228;-88
2023/04/11 12:39:35;;;;;;;6.00;3.20;;;;;;;17.44;56.37;98371.59;271422;1272;22422;-90
2023/04/11 12:45:38;;;;;;;3.30;2.80;;;;;;;17.65;56.81;98356.09;272704;1273;23096;-88
2023/04/11 12:51:50;;;;;;;8.00;2.90;;;;;;;18.13;56.08;98345.31;272159;1272;22751;-90
2023/04/11 12:57:54;;;;;;;4.90;3.20;;;;;;;17.96;54.96;98335.76;269335;1272;26639;-89
2023/04/11 13:03:56;;;;;;;4.40;3.10;;;;;;;17.60;54.73;98328.09;271424;1273;23545;-90
2023/04/11 13:10:19;;;;;;;6.60;3.80;;;;;;;17.39;54.49;98323.42;272864;1271;22196;-89
2023/04/11 13:16:23;;;;;;;5.50;3.60;;;;;;;17.38;54.56;98311.13;272831;1272;22388;-86
2023/04/11 13:22:26;;;;;;;6.00;4.20;;;;;;;17.62;55.06;98305.66;272759;1272;23449;-89
2023/04/11 13:28:29;;;;;;;4.10;2.70;;;;;;;18.01;54.17;98296.38;272500;1272;23093;-89
2023/04/11 13:34:31;;;;;;;5.00;3.40;;;;;;;18.07;53.42;98290.57;272985;1267;23578;-91
2023/04/11 13:40:34;;;;;;;3.90;3.30;;;;;;;18.14;53.53;98282.22;271454;1267;24248;-90
2023/04/11 13:46:36;;;;;;;5.20;3.30;;;;;;;17.97;53.19;98274.50;270392;1267;22566;-90
2023/04/11 13:52:43;;;;;;;4.20;2.90;;;;;;;17.61;52.35;98271.67;270213;1267;24047;-90
2023/04/11 13:58:45;;;;;;;4.20;2.80;;;;;;;17.66;52.93;98267.66;270288;1266;22536;-89
2023/04/11 14:04:58;;;;;;;4.80;3.00;;;;;;;17.66;52.02;98257.21;269736;1257;22686;-90
2023/04/11 14:11:00;;;;;;;4.60;3.10;;;;;;;17.51;51.08;98247.86;271109;1267;22301;-88
2023/04/11 14:17:02;;;;;;;4.00;3.40;;;;;;;17.44;51.11;98237.69;271922;1267;23891;-88
2023/04/11 14:23:15;;;;;;;4.50;3.30;;;;;;;17.43;51.81;98236.42;270237;1267;23751;-91
2023/04/11 14:29:25;;;;;;;8.50;3.20;;;;;;;17.63;52.61;98228.52;271173;1267;22431;-89
2023/04/11 14:35:30;;;;;;;3.80;3.00;;;;;;;17.88;52.49;98221.43;273604;1268;22189;-90
2023/04/11 14:41:34;;;;;;;5.50;3.50;;;;;;;18.05;51.70;98219.58;273509;1268;22583;-89
2023/04/11 14:47:38;;;;;;;4.80;3.50;;;;;;;17.93;50.75;98216.64;272170;1268;22389;-90
2023/04/11 14:53:58;;;;;;;5.50;3.90;;;;;;;17.56;51.66;98209.36;273795;1267;22352;-89
2023/04/11 15:00:16;;;;;;;5.00;3.70;;;;;;;17.09;51.77;98207.34;273884;1266;22373;-90
2023/04/11 15:06:19;;;;;;;6.80;3.60;;;;;;;16.68;52.27;98207.27;273398;1267;22458;-90
2023/04/11 15:12:24;;;;;;;6.90;4.70;;;;;;;16.52;52.83;98207.59;270527;1266;22325;-89
2023/04/11 15:18:28;;;;;;;5.80;4.50;;;;;;;16.29;52.93;98203.08;270816;1267;22329;-88
2023/04/11 15:25:01;;;;;;;5.90;3.70;;;;;;;16.04;53.04;98205.16;271414;1267;24713;-89
2023/04/11 15:31:06;;;;;;;10.70;5.70;;;;;;;15.78;53.68;98205.92;271562;1266;22554;-92
2023/04/11 15:37:12;;;;;;;8.30;5.70;;;;;;;15.38;55.08;98222.73;272829;1267;22316;-89
2023/04/11 15:43:18;;;;;;;12.30;8.10;;;;;;;14.77;56.42;98234.22;273494;1267;22409;-91
2023/04/11 15:49:21;;;;;;;13.00;9.00;;;;;;;13.96;59.60;98246.98;272101;1267;22535;-90
2023/04/11 15:55:27;;;;;;;17.50;10.20;;;;;;;13.22;62.03;98256.65;270910;1269;22520;-90
2023/04/11 16:01:55;;;;;;;18.40;11.00;;;;;;;12.70;64.00;98254.41;270430;1268;23502;-90
2023/04/11 16:08:03;;;;;;;15.90;10.80;;;;;;;12.32;65.99;98249.39;272047;1268;22539;-90
2023/04/11 16:14:11;;;;;;;20.80;14.10;;;;;;;12.13;66.87;98246.94;271002;1268;22641;-91
2023/04/11 16:20:19;;;;;;;17.60;11.00;;;;;;;11.95;68.00;98243.39;271121;1267;24216;-90
2023/04/11 16:26:21;;;;;;;13.60;8.50;;;;;;;11.82;68.49;98247.30;270773;1267;22296;-93
2023/04/11 16:32:23;;;;;;;11.80;7.80;;;;;;;11.68;69.07;98263.59;269929;1269;25585;-91
2023/04/11 16:38:26;;;;;;;13.90;7.90;;;;;;;11.48;69.75;98273.05;270243;1268;22547;-90
2023/04/11 16:44:30;;;;;;;14.10;9.30;;;;;;;11.31;70.73;98273.75;263719;1268;10001207;-90
2023/04/11 16:50:39;;;;;;;13.30;8.50;;;;;;;11.15;71.86;98285.23;271669;1268;22602;-92
2023/04/11 16:57:07;;;;;;;16.90;10.00;;;;;;;10.99;72.62;98297.63;271634;1269;22598;-90
2023/04/11 17:03:09;;;;;;;13.70;8.60;;;;;;;10.83;73.46;98302.10;271743;1267;22494;-91
2023/04/11 17:09:14;;;;;;;17.30;9.00;;;;;;;10.66;73.99;98308.45;271061;1268;22551;-89
2023/04/11 17:15:19;;;;;;;15.20;8.60;;;;;;;10.48;74.74;98315.33;271455;1267;22576;-90
2023/04/11 17:21:26;;;;;;;11.10;6.90;;;;;;;10.32;75.62;98312.80;271094;1265;22645;-90
2023/04/11 17:27:32;;;;;;;10.30;6.80;;;;;;;10.22;76.61;98318.73;271209;1268;22549;-91
2023/04/11 17:33:55;;;;;;;9.30;5.10;;;;;;;10.13;76.59;98321.14;271493;1267;22552;-89
2023/04/11 17:40:05;;;;;;;6.70;4.10;;;;;;;10.00;76.97;98325.77;271013;1267;166122;-89
2023/04/11 17:46:13;;;;;;;7.90;4.50;;;;;;;9.85;77.73;98336.19;270936;1268;22578;-89
2023/04/11 17:52:24;;;;;;;11.80;5.10;;;;;;;9.71;78.16;98348.40;270271;1267;23863;-91
2023/04/11 17:58:26;;;;;;;8.70;5.30;;;;;;;9.57;78.59;98359.97;271462;1268;24283;-90
2023/04/11 18:04:56;;;;;;;8.30;5.10;;;;;;;9.49;79.51;98371.86;271047;1267;22894;-91
2023/04/11 18:11:42;;;;;;;10.10;5.40;;;;;;;9.40;79.98;98379.85;272040;1269;22405;-90
2023/04/11 18:17:45;;;;;;;11.80;6.10;;;;;;;9.28;80.83;98388.36;273796;1260;22223;-88
2023/04/11 18:23:58;;;;;;;11.50;6.30;;;;;;;9.21;80.99;98399.08;271870;1269;22670;-88
2023/04/11 18:30:24;;;;;;;8.80;5.40;;;;;;;9.11;81.05;98410.31;270595;1269;22597;-90
2023/04/11 18:36:30;;;;;;;11.90;5.80;;;;;;;8.94;81.66;98423.77;272329;1267;22325;-89
2023/04/11 18:42:33;;;;;;;9.00;4.60;;;;;;;8.82;82.65;98429.04;272230;1267;22326;-90
2023/04/11 18:48:36;;;;;;;11.80;4.90;;;;;;;8.68;83.08;98435.21;270174;1267;22652;-91
2023/04/11 18:55:00;;;;;;;8.70;4.70;;;;;;;8.51;83.67;98445.97;270910;1269;22434;-91
2023/04/11 19:01:19;;;;;;;9.20;5.40;;;;;;;8.37;84.71;98449.31;270773;1265;22564;-91
2023/04/11 19:07:26;;;;;;;9.50;5.30;;;;;;;8.28;85.63;98456.15;270578;1266;22553;-89
2023/04/11 19:13:28;;;;;;;8.50;5.80;;;;;;;8.18;86.29;98456.48;272080;1269;22452;-89
2023/04/11 19:19:59;;;;;;;11.70;7.10;;;;;;;8.08;87.00;98456.89;270918;1268;22665;-89
2023/04/11 19:26:13;;;;;;;10.20;5.80;;;;;;;7.98;88.16;98463.70;270740;1267;23220;-90
2023/04/11 19:32:31;;;;;;;12.60;7.70;;;;;;;7.88;88.30;98467.23;270666;1270;22551;-90
2023/04/11 19:38:50;;;;;;;11.90;6.90;;;;;;;7.78;89.19;98471.15;271402;1267;22631;-91
2023/04/11 19:45:08;;;;;;;10.90;6.00;;;;;;;7.75;90.16;98471.50;272266;1268;22815;-89
2023/04/11 19:51:38;;;;;;;11.70;6.80;;;;;;;7.70;90.57;98472.91;271014;1268;22193;-90
2023/04/11 19:57:49;;;;;;;15.60;8.20;;;;;;;7.67;91.16;98479.09;270741;1262;23618;-89
2023/04/11 20:04:14;;;;;;;12.80;7.50;;;;;;;7.62;91.54;98486.17;270718;1267;22551;-91
2023/04/11 20:10:27;;;;;;;12.30;7.40;;;;;;;7.52;91.58;98486.42;271282;1267;22986;-91
2023/04/11 20:16:43;;;;;;;11.80;7.30;;;;;;;7.45;91.75;98488.64;271269;1270;24228;-90
2023/04/11 20:23:14;;;;;;;13.20;7.60;;;;;;;7.36;92.13;98489.20;272104;1255;22580;-89
2023/04/11 20:29:37;;;;;;;11.70;7.70;;;;;;;7.30;92.59;98486.77;271106;1268;22413;-90
2023/04/11 20:35:55;;;;;;;12.60;6.60;;;;;;;7.28;93.09;98489.08;271028;1269;24256;-89
2023/04/11 20:42:39;;;;;;;12.80;7.20;;;;;;;7.21;93.13;98487.80;270798;1268;22562;-90
2023/04/11 20:48:53;;;;;;;12.80;6.90;;;;;;;7.16;93.33;98485.23;271122;1266;22621;-90
2023/04/11 20:55:32;;;;;;;12.20;6.60;;;;;;;7.14;93.67;98487.36;270346;1270;22995;-90
2023/04/11 21:01:34;;;;;;;18.80;8.80;;;;;;;7.11;93.97;98488.42;270985;1268;22543;-90
2023/04/11 21:07:41;;;;;;;14.40;9.10;;;;;;;7.09;94.21;98491.26;270533;1268;24204;-88
2023/04/11 21:13:53;;;;;;;20.00;11.20;;;;;;;7.11;95.06;98491.85;269789;1268;22563;-88
2023/04/11 21:20:23;;;;;;;17.90;10.50;;;;;;;7.14;95.26;98484.88;270413;1270;24969;-88
2023/04/11 21:27:23;;;;;;;19.20;11.10;;;;;;;7.13;95.64;98483.62;271117;1269;22315;-88
2023/04/11 21:40:51;;;;;;;22.70;11.30;;;;;;;7.10;96.49;98489.80;269482;1276;22560;-91
2023/04/11 21:47:18;;;;;;;17.70;12.60;;;;;;;7.10;96.75;98491.51;270978;1271;23156;-90
2023/04/11 22:01:11;;;;;;;19.40;11.90;;;;;;;6.98;97.46;98485.02;272136;1270;23082;-88
2023/04/11 22:07:28;;;;;;;19.10;12.30;;;;;;;6.98;97.99;98483.60;272906;1272;22461;-89
2023/04/11 22:14:00;;;;;;;21.00;12.20;;;;;;;7.02;98.20;98480.64;271803;1269;22549;-89
2023/04/11 22:20:24;;;;;;;22.00;12.80;;;;;;;7.02;98.45;98483.83;272075;1269;22850;-90
2023/04/11 22:26:41;;;;;;;23.70;14.80;;;;;;;7.02;98.73;98492.62;272455;1269;22815;-91
2023/04/11 22:32:45;;;;;;;19.90;14.20;;;;;;;7.00;98.78;98494.51;272443;1270;22549;-90
2023/04/11 22:39:09;;;;;;;27.40;15.70;;;;;;;6.98;99.22;98494.96;270973;1269;22366;-91
2023/04/11 22:46:00;;;;;;;32.10;18.50;;;;;;;6.95;99.61;98493.13;272402;1266;22770;-92
2023/04/11 22:52:08;;;;;;;36.10;20.20;;;;;;;6.93;99.66;98496.81;271333;1267;22571;-90
2023/04/11 22:58:22;;;;;;;29.50;19.00;;;;;;;6.92;99.93;98498.27;272547;1267;22224;-91
2023/04/11 23:04:34;;;;;;;30.00;18.50;;;;;;;6.88;100.00;98496.64;271217;1267;22836;-90
2023/04/11 23:10:41;;;;;;;34.00;21.80;;;;;;;6.83;100.00;98495.63;272577;1251;23429;-90
2023/04/11 23:17:14;;;;;;;30.80;20.20;;;;;;;6.80;100.00;98491.67;271650;1260;25322;-91
2023/04/11 23:23:29;;;;;;;32.20;21.10;;;;;;;6.75;100.00;98488.11;271990;1267;23272;-90
2023/04/11 23:37:18;;;;;;;36.20;21.30;;;;;;;6.66;100.00;98479.84;272390;1268;22359;-89
2023/04/11 23:43:48;;;;;;;31.50;19.80;;;;;;;6.67;100.00;98474.18;272210;1268;22363;-91
2023/04/11 23:49:56;;;;;;;29.30;16.50;;;;;;;6.68;100.00;98467.05;272086;1270;22160;-89
2023/04/11 23:56:10;;;;;;;24.10;14.80;;;;;;;6.64;100.00;98464.27;271490;1268;22581;-91
